createdAt,value
2023-05-02T00:00:01.273Z,-11147.13
2023-05-02T00:03:09.420Z,-11145.47
2023-05-02T00:06:15.575Z,-11144.47
2023-05-02T00:09:21.594Z,-11144.47
2023-05-02T00:12:27.611Z,-11153.19
2023-05-02T00:15:33.746Z,-11150.09
2023-05-02T00:18:41.091Z,-11157.97
2023-05-02T00:21:49.359Z,-11147.97
2023-05-02T00:24:58.623Z,-11151.50
2023-05-02T00:28:05.043Z,-11155.44
2023-05-02T00:31:11.037Z,-11159.66
2023-05-02T00:34:18.746Z,-11163.44
2023-05-02T00:37:28.739Z,-11161.06
2023-05-02T00:40:45.022Z,-11155.16
2023-05-02T00:43:51.036Z,-11154.31
2023-05-02T00:46:57.433Z,-11162.59
2023-05-02T00:50:06.064Z,-11157.41
2023-05-02T00:53:12.594Z,-11164.00
2023-05-02T00:56:18.916Z,-11152.34
2023-05-02T00:59:25.224Z,-11159.38
2023-05-02T01:02:40.262Z,-11162.88
2023-05-02T01:05:53.629Z,-11161.19
2023-05-02T01:09:08.670Z,-11162.75
2023-05-02T01:12:23.876Z,-11160.50
2023-05-02T01:15:30.103Z,-11158.38
2023-05-02T01:18:39.948Z,-11159.66
2023-05-02T01:21:49.865Z,-11163.59
2023-05-02T01:25:06.033Z,-11165.56
2023-05-02T01:28:22.902Z,-11151.50
2023-05-02T01:31:34.454Z,-11145.19
2023-05-02T01:34:44.519Z,-11144.19
2023-05-02T01:37:52.898Z,-11154.03
2023-05-02T01:41:03.608Z,-11166.53
2023-05-02T01:44:11.130Z,-11162.19
2023-05-02T01:47:21.012Z,-11156.56
2023-05-02T01:50:27.811Z,-11160.50
2023-05-02T01:53:37.001Z,-11160.06
2023-05-02T01:56:45.678Z,-11150.38
2023-05-02T01:59:52.710Z,-11156.69
2023-05-02T02:03:01.540Z,-11149.53
2023-05-02T02:06:08.832Z,-11156.56
2023-05-02T02:09:15.427Z,-11155.72
2023-05-02T02:12:27.473Z,-11152.19
2023-05-02T02:15:37.200Z,-11153.47
2023-05-02T02:18:47.013Z,-11151.06
2023-05-02T02:21:55.655Z,-11140.81
2023-05-02T02:25:02.647Z,-11142.22
2023-05-02T02:28:09.073Z,-11145.88
2023-05-02T02:31:15.435Z,-11144.63
2023-05-02T02:34:23.321Z,-11137.31
2023-05-02T02:37:34.119Z,-11139.69
2023-05-02T02:40:46.190Z,-11135.47
2023-05-02T02:44:02.648Z,-11136.59
2023-05-02T02:47:12.913Z,-11132.94
2023-05-02T02:50:26.487Z,-11128.47
2023-05-02T02:53:42.156Z,-11136.47
2023-05-02T02:56:57.076Z,-11125.50
2023-05-02T03:00:10.849Z,-11117.50
2023-05-02T03:03:19.026Z,-11126.91
2023-05-02T03:06:27.522Z,-11134.50
2023-05-02T03:09:42.645Z,-11134.34
2023-05-02T03:12:49.223Z,-11128.19
2023-05-02T03:16:39.810Z,-11128.19
2023-05-02T03:19:47.401Z,-11119.59
2023-05-02T03:22:54.945Z,-11125.09
2023-05-02T03:26:00.988Z,-11128.47
2023-05-02T03:29:07.245Z,-11120.03
2023-05-02T03:32:13.413Z,-11122.84
2023-05-02T03:35:19.637Z,-11129.59
2023-05-02T03:38:27.306Z,-11132.66
2023-05-02T03:41:33.382Z,-11133.78
2023-05-02T03:44:39.463Z,-11124.66
2023-05-02T03:47:45.443Z,-11127.91
2023-05-02T03:50:52.261Z,-11129.59
2023-05-02T03:53:59.872Z,-11134.91
2023-05-02T03:57:06.276Z,-11133.66
2023-05-02T04:00:13.381Z,-11134.91
2023-05-02T04:03:20.047Z,-11133.50
2023-05-02T04:06:26.304Z,-11128.59
2023-05-02T04:09:34.021Z,-11130.69
2023-05-02T04:12:40.096Z,-11127.63
2023-05-02T04:15:46.912Z,-11135.47
2023-05-02T04:18:53.447Z,-11129.88
2023-05-02T04:21:59.858Z,-11128.31
2023-05-02T04:25:07.848Z,-11122.13
2023-05-02T04:28:14.231Z,-11093.91
2023-05-02T04:31:20.517Z,-11126.22
2023-05-02T04:34:27.780Z,-11130.97
2023-05-02T04:37:34.392Z,-11137.31
2023-05-02T04:40:42.444Z,-11133.94
2023-05-02T04:43:48.401Z,-11134.34
2023-05-02T04:46:54.763Z,-11140.13
2023-05-02T04:50:01.301Z,-11138.28
2023-05-02T04:53:07.790Z,-11145.31
2023-05-02T04:56:15.346Z,-11139.97
2023-05-02T04:59:21.893Z,-11140.25
2023-05-02T05:02:28.336Z,-11150.38
2023-05-02T05:05:34.664Z,-11151.78
2023-05-02T05:08:40.801Z,-11142.66
2023-05-02T05:11:48.214Z,-11131.81
2023-05-02T05:14:54.608Z,-11136.88
2023-05-02T05:18:01.293Z,-11142.38
2023-05-02T05:21:07.509Z,-11152.47
2023-05-02T05:24:13.567Z,-11145.59
2023-05-02T05:27:20.869Z,-11142.50
2023-05-02T05:30:27.260Z,-11144.91
2023-05-02T05:33:33.545Z,-11156.56
2023-05-02T05:36:41.266Z,-11151.22
2023-05-02T05:39:47.451Z,-11164.16
2023-05-02T05:42:55.141Z,-11161.06
2023-05-02T05:46:01.526Z,-11170.91
2023-05-02T05:49:08.054Z,-11193.81
2023-05-02T05:52:14.083Z,-11198.16
2023-05-02T05:55:20.516Z,-11191.69
2023-05-02T05:58:28.003Z,-11192.25
2023-05-02T06:01:34.312Z,-11207.44
2023-05-02T06:04:40.794Z,-11213.91
2023-05-02T06:07:47.386Z,-11182.84
2023-05-02T06:10:53.411Z,-11199.56
2023-05-02T06:14:00.906Z,-11227.69
2023-05-02T06:17:07.360Z,-11253.03
2023-05-02T06:20:14.067Z,-11265.84
2023-05-02T06:23:21.167Z,-11238.09
2023-05-02T06:26:27.193Z,-11220.66
2023-05-02T06:29:34.721Z,-11216.03
2023-05-02T06:32:42.470Z,-11216.59
2023-05-02T06:35:52.899Z,-11251.19
2023-05-02T06:38:59.092Z,-11284.84
2023-05-02T06:42:05.733Z,-11302.28
2023-05-02T06:45:13.595Z,-11260.34
2023-05-02T06:48:20.141Z,-11280.03
2023-05-02T06:51:26.228Z,-11261.88
2023-05-02T06:54:32.217Z,-11259.78
2023-05-02T06:57:38.372Z,-11279.19
2023-05-02T07:00:46.266Z,-11264.84
2023-05-02T07:03:52.791Z,-11264.84
2023-05-02T07:06:59.240Z,-11310.44
2023-05-02T07:10:05.982Z,-11318.47
2023-05-02T07:13:12.110Z,-11300.88
2023-05-02T07:16:19.527Z,-11301.72
2023-05-02T07:19:26.137Z,-11319.31
2023-05-02T07:22:32.475Z,-11308.47
2023-05-02T07:25:40.235Z,-11309.88
2023-05-02T07:28:46.578Z,-11324.25
2023-05-02T07:31:54.581Z,-11296.38
2023-05-02T07:35:00.966Z,-11330.88
2023-05-02T07:38:07.355Z,-11368.19
2023-05-02T07:41:15.061Z,-11367.34
2023-05-02T07:44:21.582Z,-11377.06
2023-05-02T07:47:29.556Z,-11369.03
2023-05-02T07:50:35.984Z,-11375.53
2023-05-02T07:53:42.417Z,-11370.88
2023-05-02T07:56:49.055Z,-11377.78
2023-05-02T07:59:57.459Z,-11436.13
2023-05-02T08:03:06.764Z,-11432.03
2023-05-02T08:06:14.310Z,-11424.72
2023-05-02T08:09:20.775Z,-11436.41
2023-05-02T08:12:27.008Z,-11435.84
2023-05-02T08:15:33.305Z,-11459.81
2023-05-02T08:18:41.351Z,-11449.22
2023-05-02T08:21:47.468Z,-11445.28
2023-05-02T08:24:53.382Z,-11442.63
2023-05-02T08:27:59.365Z,-11433.03
2023-05-02T08:31:05.568Z,-11458.41
2023-05-02T08:34:13.028Z,-11460.25
2023-05-02T08:37:19.488Z,-11454.75
2023-05-02T08:40:40.584Z,-11467.44
2023-05-02T08:43:48.753Z,-11469.25
2023-05-02T08:46:56.846Z,-11463.34
2023-05-02T08:50:05.695Z,-11464.88
2023-05-02T08:53:13.797Z,-11458.41
2023-05-02T08:56:20.200Z,-11475.06
2023-05-02T08:59:26.541Z,-11470.81
2023-05-02T09:02:57.366Z,-11468.84
2023-05-02T09:06:10.765Z,-11489.44
2023-05-02T09:09:17.803Z,-11477.31
2023-05-02T09:12:27.807Z,-11471.66
2023-05-02T09:15:34.395Z,-11472.78
2023-05-02T09:18:42.912Z,-11484.91
2023-05-02T09:21:50.652Z,-11473.91
2023-05-02T09:24:57.526Z,-11483.50
2023-05-02T09:28:04.023Z,-11487.19
2023-05-02T09:31:12.622Z,-11479.56
2023-05-02T09:34:19.529Z,-11479.41
2023-05-02T09:37:39.707Z,-11482.25
2023-05-02T09:40:55.730Z,-11480.41
2023-05-02T09:44:01.874Z,-11486.19
2023-05-02T09:47:09.437Z,-11493.53
2023-05-02T09:50:35.039Z,-11500.44
2023-05-02T09:53:46.569Z,-11489.16
2023-05-02T09:56:57.594Z,-11512.28
2023-05-02T10:00:03.693Z,-11500.16
2023-05-02T10:03:10.842Z,-11501.28
2023-05-02T10:06:18.173Z,-11506.50
2023-05-02T10:09:27.445Z,-11485.91
2023-05-02T10:12:35.004Z,-11519.91
2023-05-02T10:15:45.890Z,-11513.13
2023-05-02T10:19:04.427Z,-11523.28
2023-05-02T10:22:11.856Z,-11488.31
2023-05-02T10:25:20.337Z,-11517.50
2023-05-02T10:28:28.144Z,-11496.47
2023-05-02T10:31:35.608Z,-11538.53
2023-05-02T10:34:43.421Z,-11526.94
2023-05-02T10:37:51.143Z,-11534.00
2023-05-02T10:41:02.949Z,-11546.44
2023-05-02T10:44:09.008Z,-11519.06
2023-05-02T10:47:22.737Z,-11545.00
2023-05-02T10:50:44.397Z,-11521.16
2023-05-02T10:53:50.662Z,-11529.78
2023-05-02T10:57:07.713Z,-11529.50
2023-05-02T11:00:24.950Z,-11548.53
2023-05-02T11:03:57.211Z,-11553.06
2023-05-02T11:07:24.582Z,-11556.59
2023-05-02T11:10:30.558Z,-11533.03
2023-05-02T11:13:53.321Z,-11547.97
2023-05-02T11:17:12.009Z,-11551.09
2023-05-02T11:20:20.696Z,-11548.69
2023-05-02T11:23:27.244Z,-11547.41
2023-05-02T11:26:33.615Z,-11523.16
2023-05-02T11:29:59.550Z,-11500.84
2023-05-02T11:33:20.445Z,-11535.13
2023-05-02T11:36:30.914Z,-11523.56
2023-05-02T11:39:37.157Z,-11543.75
2023-05-02T11:42:43.651Z,-11516.22
2023-05-02T11:45:51.504Z,-11520.31
2023-05-02T11:48:57.625Z,-11510.72
2023-05-02T11:52:06.838Z,-11526.66
2023-05-02T11:55:15.260Z,-11539.66
2023-05-02T11:58:23.441Z,-11526.13
2023-05-02T12:01:31.498Z,-11525.25
2023-05-02T12:04:44.195Z,-11554.06
2023-05-02T12:07:50.240Z,-11528.94
2023-05-02T12:10:58.012Z,-11508.34
2023-05-02T12:14:05.520Z,-11507.78
2023-05-02T12:17:13.511Z,-11533.16
2023-05-02T12:20:19.968Z,-11517.50
2023-05-02T12:23:27.581Z,-11536.97
2023-05-02T12:26:33.857Z,-11555.59
2023-05-02T12:29:41.386Z,-11576.06
2023-05-02T12:32:57.690Z,-11537.97
2023-05-02T12:36:10.042Z,-11544.88
2023-05-02T12:39:16.449Z,-11590.59
2023-05-02T12:42:23.906Z,-11563.22
2023-05-02T12:45:33.801Z,-11571.69
2023-05-02T12:48:41.568Z,-11570.97
2023-05-02T12:51:55.827Z,-11547.97
2023-05-02T12:55:16.983Z,-11577.47
2023-05-02T12:58:25.625Z,-11554.63
2023-05-02T13:01:31.819Z,-11559.97
2023-05-02T13:04:41.212Z,-11578.59
2023-05-02T13:07:47.680Z,-11573.25
2023-05-02T13:10:54.092Z,-11584.81
2023-05-02T13:14:01.612Z,-11578.31
2023-05-02T13:17:08.916Z,-11588.34
2023-05-02T13:20:16.567Z,-11574.78
2023-05-02T13:23:22.712Z,-11583.69
2023-05-02T13:26:28.713Z,-11566.31
2023-05-02T13:29:34.984Z,-11566.19
2023-05-02T13:32:41.436Z,-11584.66
2023-05-02T13:35:48.732Z,-11578.31
2023-05-02T13:38:54.928Z,-11577.91
2023-05-02T13:42:03.571Z,-11557.72
2023-05-02T13:45:11.042Z,-11579.72
2023-05-02T13:48:17.098Z,-11580.16
2023-05-02T13:51:24.935Z,-11583.97
2023-05-02T13:54:31.146Z,-11589.34
2023-05-02T13:57:37.572Z,-11571.97
2023-05-02T14:00:44.137Z,-11572.69
2023-05-02T14:03:50.595Z,-11576.75
2023-05-02T14:06:57.993Z,-11584.25
2023-05-02T14:10:04.322Z,-11582.69
2023-05-02T14:13:10.800Z,-11567.88
2023-05-02T14:16:16.789Z,-11587.63
2023-05-02T14:19:22.879Z,-11600.91
2023-05-02T14:22:30.539Z,-11566.47
2023-05-02T14:25:37.530Z,-11603.72
2023-05-02T14:28:43.515Z,-11595.53
2023-05-02T14:31:49.514Z,-11570.97
2023-05-02T14:38:02.573Z,-11543.31
2023-05-02T14:41:08.447Z,-11547.69
2023-05-02T14:44:14.457Z,-11551.94
2023-05-02T14:47:21.134Z,-11559.13
2023-05-02T14:50:27.528Z,-11581.28
2023-05-02T14:53:35.617Z,-11547.97
2023-05-02T14:56:41.940Z,-11510.03
2023-05-02T14:59:48.441Z,-11507.63
2023-05-02T15:02:55.051Z,-11574.94
2023-05-02T15:06:01.726Z,-11606.28
2023-05-02T15:09:09.680Z,-11605.13
2023-05-02T15:12:15.817Z,-11614.75
2023-05-02T15:15:25.170Z,-11529.63
2023-05-02T15:18:32.330Z,-11478.44
2023-05-02T15:21:38.881Z,-11480.13
2023-05-02T15:24:46.880Z,-11482.09
2023-05-02T15:27:52.982Z,-11471.81
2023-05-02T15:30:59.389Z,-11472.22
2023-05-02T15:34:05.749Z,-11466.88
2023-05-02T15:37:12.154Z,-11464.47
2023-05-02T15:40:20.083Z,-11455.31
2023-05-02T15:43:26.846Z,-11459.97
2023-05-02T15:46:32.963Z,-11446.41
2023-05-02T15:49:39.193Z,-11454.03
2023-05-02T15:52:45.197Z,-11455.03
2023-05-02T15:55:53.458Z,-11451.63
2023-05-02T15:58:59.537Z,-11446.28
2023-05-02T16:02:06.408Z,-11443.19
2023-05-02T16:05:13.007Z,-11438.94
2023-05-02T16:08:19.228Z,-11434.16
2023-05-02T16:11:26.839Z,-11435.13
2023-05-02T16:14:33.159Z,-11431.63
2023-05-02T16:17:39.344Z,-11427.66
2023-05-02T16:20:47.853Z,-11429.09
2023-05-02T16:23:55.137Z,-11428.25
2023-05-02T16:27:02.860Z,-11425.69
2023-05-02T16:30:10.358Z,-11422.31
2023-05-02T16:33:16.936Z,-11417.78
2023-05-02T16:36:23.612Z,-11412.72
2023-05-02T16:39:30.232Z,-11411.88
2023-05-02T16:42:38.216Z,-11404.28
2023-05-02T16:45:47.110Z,-11403.72
2023-05-02T16:48:53.363Z,-11400.47
2023-05-02T16:51:59.944Z,-11396.94
2023-05-02T16:55:06.853Z,-11392.56
2023-05-02T16:58:14.477Z,-11390.75
2023-05-02T17:01:21.060Z,-11386.78
2023-05-02T17:04:27.599Z,-11385.66
2023-05-02T17:07:33.900Z,-11380.88
2023-05-02T17:10:40.009Z,-11375.25
2023-05-02T17:13:49.808Z,-11373.13
2023-05-02T17:16:56.390Z,-11371.56
2023-05-02T17:20:02.657Z,-11367.63
2023-05-02T17:23:09.155Z,-11364.81
2023-05-02T17:26:15.777Z,-11357.91
2023-05-02T17:29:23.036Z,-11359.47
2023-05-02T17:32:29.065Z,-11354.81
2023-05-02T17:35:35.113Z,-11357.34
2023-05-02T17:38:42.014Z,-11352.41
2023-05-02T17:41:48.391Z,-11348.75
2023-05-02T17:44:56.256Z,-11345.53
2023-05-02T17:48:03.979Z,-11344.38
2023-05-02T17:51:10.563Z,-11339.31
2023-05-02T17:54:16.605Z,-11337.50
2023-05-02T17:57:23.210Z,-11332.84
2023-05-02T18:00:31.113Z,-11331.56
2023-05-02T18:03:37.439Z,-11325.50
2023-05-02T18:06:44.077Z,-11325.50
2023-05-02T18:09:50.249Z,-11319.75
2023-05-02T18:12:56.585Z,-11316.50
2023-05-02T18:16:04.831Z,-11318.63
2023-05-02T18:19:10.971Z,-11317.50
2023-05-02T18:22:19.898Z,-11311.72
2023-05-02T18:25:29.071Z,-11310.16
2023-05-02T18:28:35.436Z,-11307.50
2023-05-02T18:31:43.511Z,-11308.75
2023-05-02T18:34:49.772Z,-11308.34
2023-05-02T18:37:56.548Z,-11307.34
2023-05-02T18:41:03.105Z,-11302.56
2023-05-02T18:44:10.700Z,-11301.59
2023-05-02T18:47:18.285Z,-11301.72
2023-05-02T18:50:26.344Z,-11300.31
2023-05-02T18:53:32.598Z,-11297.91
2023-05-02T18:56:38.693Z,-11296.38
2023-05-02T18:59:44.941Z,-11292.84
2023-05-02T19:02:54.647Z,-11289.63
2023-05-02T19:06:01.210Z,-11284.56
2023-05-02T19:09:07.615Z,-11286.22
2023-05-02T19:12:13.474Z,-11286.66
2023-05-02T19:15:19.748Z,-11284.13
2023-05-02T19:18:27.195Z,-11286.50
2023-05-02T19:21:34.229Z,-11281.16
2023-05-02T19:24:40.442Z,-11280.47
2023-05-02T19:27:47.827Z,-11274.84
2023-05-02T19:30:54.889Z,-11276.81
2023-05-02T19:34:02.399Z,-11273.84
2023-05-02T19:37:08.779Z,-11276.94
2023-05-02T19:40:15.378Z,-11273.28
2023-05-02T19:43:21.565Z,-11272.72
2023-05-02T19:46:31.164Z,-11270.47
2023-05-02T19:49:38.862Z,-11270.19
2023-05-02T19:52:45.252Z,-11270.19
2023-05-02T19:55:51.765Z,-11269.34
2023-05-02T19:58:58.805Z,-11260.63
2023-05-02T20:02:05.733Z,-11268.94
2023-05-02T20:05:13.407Z,-11268.66
2023-05-02T20:08:21.545Z,-11267.53
2023-05-02T20:11:30.968Z,-11262.72
2023-05-02T20:14:37.510Z,-11261.88
2023-05-02T20:17:43.976Z,-11258.66
2023-05-02T20:20:51.755Z,-11263.16
2023-05-02T20:23:57.786Z,-11263.31
2023-05-02T20:27:03.933Z,-11260.91
2023-05-02T20:30:12.435Z,-11256.69
2023-05-02T20:33:18.876Z,-11255.28
2023-05-02T20:36:27.879Z,-11259.34
2023-05-02T20:39:34.150Z,-11256.41
2023-05-02T20:42:42.598Z,-11257.09
2023-05-02T20:45:48.915Z,-11256.53
2023-05-02T20:48:55.040Z,-11255.28
2023-05-02T20:52:05.468Z,-11258.09
2023-05-02T20:55:12.260Z,-11259.34
2023-05-02T20:58:18.617Z,-11257.66
2023-05-02T21:01:25.057Z,-11255.97
2023-05-02T21:04:31.276Z,-11261.19
2023-05-02T21:07:40.599Z,-11261.19
2023-05-02T21:10:46.960Z,-11260.63
2023-05-02T21:13:53.169Z,-11260.63
2023-05-02T21:16:59.311Z,-11263.88
2023-05-02T21:20:06.134Z,-11266.53
2023-05-02T21:23:13.717Z,-11263.72
2023-05-02T21:26:19.905Z,-11260.19
2023-05-02T21:29:26.374Z,-11259.91
2023-05-02T21:32:32.606Z,-11265.00
2023-05-02T21:35:38.629Z,-11253.03
2023-05-02T21:38:46.422Z,-11254.28
2023-05-02T21:41:53.127Z,-11246.56
2023-05-02T21:44:59.638Z,-11255.00
2023-05-02T21:48:06.725Z,-11253.31
2023-05-02T21:51:14.218Z,-11244.72
2023-05-02T21:54:21.977Z,-11238.09
2023-05-02T21:57:28.345Z,-11237.97
2023-05-02T22:00:35.006Z,-11239.38
2023-05-02T22:03:41.425Z,-11240.91
2023-05-02T22:06:51.409Z,-11239.78
2023-05-02T22:09:59.013Z,-11236.00
2023-05-02T22:13:05.573Z,-11235.16
2023-05-02T22:16:12.141Z,-11236.16
2023-05-02T22:19:19.036Z,-11233.47
2023-05-02T22:22:25.395Z,-11236.16
2023-05-02T22:25:32.957Z,-11243.47
2023-05-02T22:28:39.262Z,-11239.50
2023-05-02T22:31:47.253Z,-11239.66
2023-05-02T22:34:53.095Z,-11240.06
2023-05-02T22:38:01.522Z,-11239.09
2023-05-02T22:41:09.244Z,-11236.16
2023-05-02T22:44:15.591Z,-11235.16
2023-05-02T22:47:23.016Z,-11236.44
2023-05-02T22:50:30.320Z,-11236.28
2023-05-02T22:53:36.526Z,-11240.22
2023-05-02T22:56:44.122Z,-11239.09
2023-05-02T22:59:50.139Z,-11244.88
2023-05-02T23:02:57.441Z,-11237.13
2023-05-02T23:06:03.660Z,-11242.03
2023-05-02T23:09:09.672Z,-11243.88
2023-05-02T23:12:17.072Z,-11243.88
2023-05-02T23:15:23.311Z,-11240.91
2023-05-02T23:18:29.622Z,-11238.53
2023-05-02T23:21:35.930Z,-11240.91
2023-05-02T23:24:42.755Z,-11234.03
2023-05-02T23:27:50.123Z,-11227.56
2023-05-02T23:30:56.332Z,-11236.56
2023-05-02T23:34:02.510Z,-11231.22
2023-05-02T23:37:08.727Z,-11235.03
2023-05-02T23:40:15.446Z,-11233.03
2023-05-02T23:43:23.149Z,-11227.28
2023-05-02T23:46:29.106Z,-11234.75
2023-05-02T23:49:35.141Z,-11237.00
2023-05-02T23:52:40.891Z,-11231.34
2023-05-02T23:55:47.245Z,-11223.34
2023-05-02T23:58:55.159Z,-11233.03
